DLH3VT EGLL-EDDM
Flight info
| Callsign | DLH3VT |
|---|---|
| Flight time | N/A |
| Altitude | 37000 |
| Route | DET L6 DVR UL9 KONAN UL607 SPI DCT MOVUM T109 HAREM T104 ROKIL ROKIL1A |
| Aircraft | A320/M-SDE3FGHIRWY/LB1 |
Departure
| Time | 2026-05-06 06:53 |
|---|---|
| Airport | London Heathrow Airport (EGLL) |
Arrival
| Time | N/A |
|---|---|
| Airport | Munich Airport (EDDM) |
| Time | Latitude | Longitude | Altitude | Speed | Heading |
|---|---|---|---|---|---|
| 2026-05-06 06:35 | 51.46824 | -0.45115 | 86 ft | 0 kts | 360° |
| 2026-05-06 06:45 | 51.46807 | -0.45115 | 86 ft | 4 kts | 360° |
| 2026-05-06 06:45 | 51.46784 | -0.45115 | 86 ft | 2 kts | 359° |
| 2026-05-06 06:46 | 51.46760 | -0.45120 | 86 ft | 4 kts | 37° |
| 2026-05-06 06:46 | 51.46750 | -0.45149 | 86 ft | 3 kts | 90° |
| 2026-05-06 06:46 | 51.46750 | -0.45156 | 86 ft | 0 kts | 90° |
| 2026-05-06 06:48 | 51.46750 | -0.45133 | 86 ft | 7 kts | 90° |
| 2026-05-06 06:48 | 51.46751 | -0.45041 | 86 ft | 10 kts | 89° |
| 2026-05-06 06:48 | 51.46751 | -0.44907 | 86 ft | 13 kts | 89° |
| 2026-05-06 06:49 | 51.46752 | -0.44748 | 86 ft | 15 kts | 89° |
| 2026-05-06 06:49 | 51.46753 | -0.44588 | 90 ft | 14 kts | 89° |
| 2026-05-06 06:49 | 51.46753 | -0.44440 | 88 ft | 13 kts | 89° |
| 2026-05-06 06:49 | 51.46754 | -0.44310 | 86 ft | 11 kts | 89° |
| 2026-05-06 06:50 | 51.46755 | -0.44200 | 86 ft | 9 kts | 89° |
| 2026-05-06 06:50 | 51.46754 | -0.44095 | 86 ft | 14 kts | 97° |
| 2026-05-06 06:50 | 51.46671 | -0.44010 | 87 ft | 15 kts | 117° |
| 2026-05-06 06:50 | 51.46666 | -0.43850 | 86 ft | 14 kts | 89° |
| 2026-05-06 06:51 | 51.46667 | -0.43697 | 86 ft | 14 kts | 90° |
| 2026-05-06 06:51 | 51.46634 | -0.43606 | 86 ft | 9 kts | 162° |
| 2026-05-06 06:51 | 51.46577 | -0.43604 | 87 ft | 10 kts | 179° |
| 2026-05-06 06:51 | 51.46501 | -0.43627 | 88 ft | 11 kts | 230° |
| 2026-05-06 06:52 | 51.46494 | -0.43790 | 86 ft | 28 kts | 270° |
| 2026-05-06 06:52 | 51.46492 | -0.44524 | 88 ft | 99 kts | 270° |
| 2026-05-06 06:52 | 51.46487 | -0.45934 | 86 ft | 151 kts | 270° |
| 2026-05-06 06:52 | 51.46482 | -0.47751 | 411 ft | 170 kts | 270° |
| 2026-05-06 06:53 | 51.46466 | -0.49651 | 1107 ft | 170 kts | 269° |
| 2026-05-06 06:53 | 51.46419 | -0.51594 | 1629 ft | 183 kts | 263° |
| 2026-05-06 06:53 | 51.46034 | -0.53655 | 1891 ft | 206 kts | 244° |
| 2026-05-06 06:53 | 51.45125 | -0.55569 | 2197 ft | 228 kts | 219° |
| 2026-05-06 06:54 | 51.43677 | -0.56920 | 2600 ft | 249 kts | 195° |
| 2026-05-06 06:54 | 51.41949 | -0.57204 | 3202 ft | 260 kts | 171° |
| 2026-05-06 06:54 | 51.40239 | -0.56244 | 3950 ft | 264 kts | 144° |
| 2026-05-06 06:54 | 51.38946 | -0.54169 | 4764 ft | 266 kts | 121° |
| 2026-05-06 06:55 | 51.37970 | -0.51634 | 5611 ft | 269 kts | 120° |
| 2026-05-06 06:55 | 51.36993 | -0.49044 | 6417 ft | 274 kts | 120° |
| 2026-05-06 06:55 | 51.35999 | -0.46408 | 7222 ft | 278 kts | 120° |
| 2026-05-06 06:55 | 51.34988 | -0.43741 | 8002 ft | 283 kts | 121° |
| 2026-05-06 06:56 | 51.33955 | -0.41027 | 8780 ft | 287 kts | 121° |
| 2026-05-06 06:56 | 51.32859 | -0.38345 | 9538 ft | 291 kts | 122° |
| 2026-05-06 06:56 | 51.31929 | -0.35454 | 10267 ft | 294 kts | 107° |
| 2026-05-06 06:56 | 51.31672 | -0.32210 | 11004 ft | 297 kts | 86° |
| 2026-05-06 06:57 | 51.31729 | -0.28906 | 11766 ft | 299 kts | 90° |
| 2026-05-06 06:57 | 51.31699 | -0.25497 | 12137 ft | 317 kts | 90° |
| 2026-05-06 06:57 | 51.31692 | -0.21837 | 12310 ft | 340 kts | 89° |